Haddam, CT (06438)

8:16 AM EDT on March 27, 2015 (GMT -0400)
APRSWXNET Haddam CT US | | Change Station
CLOSE
Current Station
Personal Weather Station
Location: Haddam, CT
Elevation: 400 ft
Nearby Weather Stations

Elev 400 ft 41.45 °N, 72.50 °W | Updated 49 minutes ago

Rain
Rain
39 °F
Feels Like 36 °F
N
4
Wind Variable Wind from NW
Gusts 6.0 mph

Today
High -- | Low -- °F
--% Chance of Precip.
Yesterday
High -- | Low -- °F
Precip. -- in
6:42 AM 7:09 PM
First Quarter, 52% visible
Pressure 29.73 in
Visibility 7.0 miles
Clouds Mostly Cloudy 700 ft
Mostly Cloudy 1800 ft
Overcast 3800 ft
Windchill 36 °F
Dew Point 39 °F
Humidity 99%
Rainfall in
Snow Depth Not available.
UV 0 out of 12
Pollen 4.50 out of 12
Air Quality Not available.
Flu Activity Not available.
METAR KSNC 271155Z AUTO 36008KT 020V360 7SM RA BKN007 BKN018 OVC038 03/03 A2973 RMK AO2 P0005

More Conditions Fewer Conditions

Pressure 29.73 in
Visibility 7.0 miles
Clouds Mostly Cloudy 700 ft
Mostly Cloudy 1800 ft
Overcast 3800 ft
Windchill 36 °F
Dew Point 39 °F
Humidity 99%
Rainfall in
Snow Depth Not available.
UV 0 out of 12
Pollen 4.50 out of 12
Air Quality Not available.
Flu Activity Not available.
METAR KSNC 271155Z AUTO 36008KT 020V360 7SM RA BKN007 BKN018 OVC038 03/03 A2973 RMK AO2 P0005

More Conditions Fewer Conditions

10-Day Weather Forecast

Almanac

Astronomy

Mar. 27, 2015 Rise Set
Actual Time
Civil Twilight
Nautical Twilight
Astronomical Twilight
Moon
Length of Visible Light
Length of Day
Tomorrow will be .
, % of the Moon is Illuminated

Today's Extremes

State Highs State Lows

Community

WunderPhotos

Upload Photos

1,808,711 photos uploaded!

WunderBlogs® & News

Nearby

Air Quality

  Air Quality AQ Index Pollutant
Not available.

Snow Depth

Station Depth Elevation

Earthquake Activity

City Distance Mag. Time & Date
Minimum magnitude displayed is 2.5.

Coastal Water Temperatures

Place Temperature

Stations

Nearby Weather Stations

Station Location Temp. Windchill Dew Point Humidity Wind Precip. Elev Updated Type